sensor_id;sensor_type;location;lat;lon;timestamp;temperature;humidity
73572;DHT22;61854;48.510;-2.770;2022-11-14T00:00:42;13.50;98.50
73572;DHT22;61854;48.510;-2.770;2022-11-14T00:03:08;13.50;98.50
73572;DHT22;61854;48.510;-2.770;2022-11-14T00:05:40;13.50;98.50
73572;DHT22;61854;48.510;-2.770;2022-11-14T00:08:06;13.40;98.50
73572;DHT22;61854;48.510;-2.770;2022-11-14T00:10:32;13.40;98.60
73572;DHT22;61854;48.510;-2.770;2022-11-14T00:12:57;13.40;98.70
73572;DHT22;61854;48.510;-2.770;2022-11-14T00:15:23;13.40;98.80
73572;DHT22;61854;48.510;-2.770;2022-11-14T00:17:48;13.50;98.80
73572;DHT22;61854;48.510;-2.770;2022-11-14T00:20:14;13.50;98.90
73572;DHT22;61854;48.510;-2.770;2022-11-14T00:22:40;13.60;98.90
73572;DHT22;61854;48.510;-2.770;2022-11-14T00:25:06;13.60;98.80
73572;DHT22;61854;48.510;-2.770;2022-11-14T00:27:31;13.60;98.70
73572;DHT22;61854;48.510;-2.770;2022-11-14T00:29:57;13.60;98.60
73572;DHT22;61854;48.510;-2.770;2022-11-14T00:32:23;13.60;98.60
73572;DHT22;61854;48.510;-2.770;2022-11-14T00:34:48;13.60;98.50
73572;DHT22;61854;48.510;-2.770;2022-11-14T00:37:14;13.60;98.50
73572;DHT22;61854;48.510;-2.770;2022-11-14T00:39:40;13.60;98.50
73572;DHT22;61854;48.510;-2.770;2022-11-14T00:42:05;13.70;98.40
73572;DHT22;61854;48.510;-2.770;2022-11-14T00:44:31;13.60;98.30
73572;DHT22;61854;48.510;-2.770;2022-11-14T00:46:57;13.60;98.30
73572;DHT22;61854;48.510;-2.770;2022-11-14T00:49:22;13.60;98.30
73572;DHT22;61854;48.510;-2.770;2022-11-14T00:51:48;13.60;98.20
73572;DHT22;61854;48.510;-2.770;2022-11-14T00:54:14;13.60;98.20
73572;DHT22;61854;48.510;-2.770;2022-11-14T00:56:39;13.60;98.20
73572;DHT22;61854;48.510;-2.770;2022-11-14T00:59:05;13.50;98.20
73572;DHT22;61854;48.510;-2.770;2022-11-14T01:01:31;13.60;98.20
73572;DHT22;61854;48.510;-2.770;2022-11-14T01:03:56;13.50;98.20
73572;DHT22;61854;48.510;-2.770;2022-11-14T01:06:22;13.50;98.10
73572;DHT22;61854;48.510;-2.770;2022-11-14T01:08:50;13.50;98.00
73572;DHT22;61854;48.510;-2.770;2022-11-14T01:11:18;13.50;98.10
73572;DHT22;61854;48.510;-2.770;2022-11-14T01:13:44;13.50;98.10
73572;DHT22;61854;48.510;-2.770;2022-11-14T01:16:10;13.50;98.10
73572;DHT22;61854;48.510;-2.770;2022-11-14T01:18:37;13.50;98.40
73572;DHT22;61854;48.510;-2.770;2022-11-14T01:21:08;13.50;97.90
73572;DHT22;61854;48.510;-2.770;2022-11-14T01:23:34;13.50;97.90
73572;DHT22;61854;48.510;-2.770;2022-11-14T01:26:02;13.50;98.00
73572;DHT22;61854;48.510;-2.770;2022-11-14T01:28:28;13.50;98.10
73572;DHT22;61854;48.510;-2.770;2022-11-14T01:30:54;13.50;97.90
73572;DHT22;61854;48.510;-2.770;2022-11-14T01:33:19;13.50;97.80
73572;DHT22;61854;48.510;-2.770;2022-11-14T01:35:45;13.60;97.70
73572;DHT22;61854;48.510;-2.770;2022-11-14T01:38:12;13.50;97.50
73572;DHT22;61854;48.510;-2.770;2022-11-14T01:40:43;13.50;97.40
73572;DHT22;61854;48.510;-2.770;2022-11-14T01:45:52;13.50;97.30
73572;DHT22;61854;48.510;-2.770;2022-11-14T01:48:23;13.50;97.30
73572;DHT22;61854;48.510;-2.770;2022-11-14T01:50:55;13.50;97.30
73572;DHT22;61854;48.510;-2.770;2022-11-14T01:53:22;13.50;97.20
73572;DHT22;61854;48.510;-2.770;2022-11-14T01:55:48;13.50;97.20
73572;DHT22;61854;48.510;-2.770;2022-11-14T01:58:15;13.50;97.20
73572;DHT22;61854;48.510;-2.770;2022-11-14T02:00:41;13.50;97.20
73572;DHT22;61854;48.510;-2.770;2022-11-14T02:03:07;13.50;97.20
73572;DHT22;61854;48.510;-2.770;2022-11-14T02:05:34;13.50;97.20
73572;DHT22;61854;48.510;-2.770;2022-11-14T02:08:00;13.50;97.20
73572;DHT22;61854;48.510;-2.770;2022-11-14T02:10:25;13.50;97.20
73572;DHT22;61854;48.510;-2.770;2022-11-14T02:12:52;13.50;97.20
73572;DHT22;61854;48.510;-2.770;2022-11-14T02:15:17;13.60;97.10
73572;DHT22;61854;48.510;-2.770;2022-11-14T02:17:43;13.60;97.00
73572;DHT22;61854;48.510;-2.770;2022-11-14T02:22:36;13.60;96.60
73572;DHT22;61854;48.510;-2.770;2022-11-14T02:25:02;13.60;96.60
73572;DHT22;61854;48.510;-2.770;2022-11-14T02:27:30;13.60;96.50
73572;DHT22;61854;48.510;-2.770;2022-11-14T02:30:06;13.60;96.40
73572;DHT22;61854;48.510;-2.770;2022-11-14T02:32:32;13.60;96.40
73572;DHT22;61854;48.510;-2.770;2022-11-14T02:34:57;13.60;96.40
73572;DHT22;61854;48.510;-2.770;2022-11-14T02:37:23;13.60;96.40
73572;DHT22;61854;48.510;-2.770;2022-11-14T02:39:49;13.60;96.40
73572;DHT22;61854;48.510;-2.770;2022-11-14T02:42:15;13.60;96.30
73572;DHT22;61854;48.510;-2.770;2022-11-14T02:44:40;13.50;96.40
73572;DHT22;61854;48.510;-2.770;2022-11-14T02:47:06;13.50;96.50
73572;DHT22;61854;48.510;-2.770;2022-11-14T02:49:32;13.50;96.60
73572;DHT22;61854;48.510;-2.770;2022-11-14T02:51:57;13.60;96.60
73572;DHT22;61854;48.510;-2.770;2022-11-14T02:54:23;13.50;96.60
73572;DHT22;61854;48.510;-2.770;2022-11-14T02:56:48;13.60;96.60
73572;DHT22;61854;48.510;-2.770;2022-11-14T02:59:14;13.50;96.60
73572;DHT22;61854;48.510;-2.770;2022-11-14T03:01:40;13.50;96.60
73572;DHT22;61854;48.510;-2.770;2022-11-14T03:04:05;13.60;96.60
73572;DHT22;61854;48.510;-2.770;2022-11-14T03:06:31;13.50;96.60
73572;DHT22;61854;48.510;-2.770;2022-11-14T03:08:56;13.50;96.60
73572;DHT22;61854;48.510;-2.770;2022-11-14T03:11:22;13.40;96.60
73572;DHT22;61854;48.510;-2.770;2022-11-14T03:13:47;13.40;96.80
73572;DHT22;61854;48.510;-2.770;2022-11-14T03:16:13;13.40;97.00
73572;DHT22;61854;48.510;-2.770;2022-11-14T03:18:39;13.30;97.00
73572;DHT22;61854;48.510;-2.770;2022-11-14T03:21:11;13.40;97.00
73572;DHT22;61854;48.510;-2.770;2022-11-14T03:23:37;13.30;97.10
73572;DHT22;61854;48.510;-2.770;2022-11-14T03:26:07;13.40;97.20
73572;DHT22;61854;48.510;-2.770;2022-11-14T03:28:34;13.40;97.20
73572;DHT22;61854;48.510;-2.770;2022-11-14T03:31:00;13.40;97.20
73572;DHT22;61854;48.510;-2.770;2022-11-14T03:33:25;13.40;97.20
73572;DHT22;61854;48.510;-2.770;2022-11-14T03:35:51;13.40;97.20
73572;DHT22;61854;48.510;-2.770;2022-11-14T03:38:18;13.40;97.20
73572;DHT22;61854;48.510;-2.770;2022-11-14T03:40:44;13.40;97.20
73572;DHT22;61854;48.510;-2.770;2022-11-14T03:43:09;13.50;97.10
73572;DHT22;61854;48.510;-2.770;2022-11-14T03:45:36;13.40;97.20
73572;DHT22;61854;48.510;-2.770;2022-11-14T03:48:02;13.50;97.20
73572;DHT22;61854;48.510;-2.770;2022-11-14T03:50:28;13.50;97.10
73572;DHT22;61854;48.510;-2.770;2022-11-14T03:52:53;13.50;97.10
73572;DHT22;61854;48.510;-2.770;2022-11-14T03:55:19;13.40;97.10
73572;DHT22;61854;48.510;-2.770;2022-11-14T03:57:45;13.40;97.10
73572;DHT22;61854;48.510;-2.770;2022-11-14T04:00:11;13.40;97.10
73572;DHT22;61854;48.510;-2.770;2022-11-14T04:02:36;13.50;97.10
73572;DHT22;61854;48.510;-2.770;2022-11-14T04:05:02;13.50;97.10
73572;DHT22;61854;48.510;-2.770;2022-11-14T04:07:28;13.50;97.10
73572;DHT22;61854;48.510;-2.770;2022-11-14T04:09:53;13.50;97.00
73572;DHT22;61854;48.510;-2.770;2022-11-14T04:12:19;13.50;97.10
73572;DHT22;61854;48.510;-2.770;2022-11-14T04:14:44;13.50;97.10
73572;DHT22;61854;48.510;-2.770;2022-11-14T04:17:10;13.50;97.00
73572;DHT22;61854;48.510;-2.770;2022-11-14T04:19:36;13.50;97.00
73572;DHT22;61854;48.510;-2.770;2022-11-14T04:22:02;13.50;96.90
73572;DHT22;61854;48.510;-2.770;2022-11-14T04:24:27;13.50;96.90
73572;DHT22;61854;48.510;-2.770;2022-11-14T04:26:53;13.50;96.90
73572;DHT22;61854;48.510;-2.770;2022-11-14T04:29:19;13.50;96.90
73572;DHT22;61854;48.510;-2.770;2022-11-14T04:31:44;13.50;96.90
73572;DHT22;61854;48.510;-2.770;2022-11-14T04:34:10;13.60;96.90
73572;DHT22;61854;48.510;-2.770;2022-11-14T04:36:36;13.60;96.80
73572;DHT22;61854;48.510;-2.770;2022-11-14T04:39:01;13.60;96.80
73572;DHT22;61854;48.510;-2.770;2022-11-14T04:41:27;13.60;96.70
73572;DHT22;61854;48.510;-2.770;2022-11-14T04:43:53;13.60;96.60
73572;DHT22;61854;48.510;-2.770;2022-11-14T04:46:18;13.70;96.60
73572;DHT22;61854;48.510;-2.770;2022-11-14T04:48:44;13.70;96.60
73572;DHT22;61854;48.510;-2.770;2022-11-14T04:51:09;13.70;96.60
73572;DHT22;61854;48.510;-2.770;2022-11-14T04:53:35;13.70;96.60
73572;DHT22;61854;48.510;-2.770;2022-11-14T04:56:01;13.70;96.60
73572;DHT22;61854;48.510;-2.770;2022-11-14T04:58:26;13.70;96.70
73572;DHT22;61854;48.510;-2.770;2022-11-14T05:00:52;13.70;96.80
73572;DHT22;61854;48.510;-2.770;2022-11-14T05:03:18;13.70;96.80
73572;DHT22;61854;48.510;-2.770;2022-11-14T05:05:43;13.70;96.80
73572;DHT22;61854;48.510;-2.770;2022-11-14T05:08:09;13.70;96.70
73572;DHT22;61854;48.510;-2.770;2022-11-14T05:10:35;13.70;96.80
73572;DHT22;61854;48.510;-2.770;2022-11-14T05:13:00;13.70;96.80
73572;DHT22;61854;48.510;-2.770;2022-11-14T05:15:26;13.70;96.80
73572;DHT22;61854;48.510;-2.770;2022-11-14T05:17:52;13.80;96.80
73572;DHT22;61854;48.510;-2.770;2022-11-14T05:20:18;13.80;96.90
73572;DHT22;61854;48.510;-2.770;2022-11-14T05:22:43;13.80;96.90
73572;DHT22;61854;48.510;-2.770;2022-11-14T05:25:09;13.80;96.80
73572;DHT22;61854;48.510;-2.770;2022-11-14T05:27:34;13.80;96.80
73572;DHT22;61854;48.510;-2.770;2022-11-14T05:30:00;13.80;96.80
73572;DHT22;61854;48.510;-2.770;2022-11-14T05:32:26;13.80;96.90
73572;DHT22;61854;48.510;-2.770;2022-11-14T05:34:51;13.80;96.90
73572;DHT22;61854;48.510;-2.770;2022-11-14T05:37:17;13.80;96.90
73572;DHT22;61854;48.510;-2.770;2022-11-14T05:39:43;13.80;97.00
73572;DHT22;61854;48.510;-2.770;2022-11-14T05:42:08;13.80;97.10
73572;DHT22;61854;48.510;-2.770;2022-11-14T05:44:34;13.80;97.00
73572;DHT22;61854;48.510;-2.770;2022-11-14T05:46:59;13.80;97.10
73572;DHT22;61854;48.510;-2.770;2022-11-14T05:49:25;13.80;97.10
73572;DHT22;61854;48.510;-2.770;2022-11-14T05:51:50;13.80;97.10
73572;DHT22;61854;48.510;-2.770;2022-11-14T05:54:16;13.90;97.10
73572;DHT22;61854;48.510;-2.770;2022-11-14T05:56:42;13.80;97.10
73572;DHT22;61854;48.510;-2.770;2022-11-14T05:59:07;13.80;97.20
73572;DHT22;61854;48.510;-2.770;2022-11-14T06:01:33;13.80;97.30
73572;DHT22;61854;48.510;-2.770;2022-11-14T06:03:59;13.80;97.30
73572;DHT22;61854;48.510;-2.770;2022-11-14T06:06:24;13.80;97.40
73572;DHT22;61854;48.510;-2.770;2022-11-14T06:08:50;13.80;97.60
73572;DHT22;61854;48.510;-2.770;2022-11-14T06:11:18;13.80;97.70
73572;DHT22;61854;48.510;-2.770;2022-11-14T06:13:45;13.80;97.80
73572;DHT22;61854;48.510;-2.770;2022-11-14T06:16:18;13.80;97.90
73572;DHT22;61854;48.510;-2.770;2022-11-14T06:18:45;13.70;97.90
73572;DHT22;61854;48.510;-2.770;2022-11-14T06:21:16;13.70;98.00
73572;DHT22;61854;48.510;-2.770;2022-11-14T06:23:43;13.70;98.10
73572;DHT22;61854;48.510;-2.770;2022-11-14T06:26:19;13.70;98.10
73572;DHT22;61854;48.510;-2.770;2022-11-14T06:28:46;13.70;98.20
73572;DHT22;61854;48.510;-2.770;2022-11-14T06:31:12;13.70;98.30
73572;DHT22;61854;48.510;-2.770;2022-11-14T06:33:37;13.70;98.40
73572;DHT22;61854;48.510;-2.770;2022-11-14T06:36:05;13.70;98.40
73572;DHT22;61854;48.510;-2.770;2022-11-14T06:38:32;13.70;98.40
73572;DHT22;61854;48.510;-2.770;2022-11-14T06:41:14;13.70;98.50
73572;DHT22;61854;48.510;-2.770;2022-11-14T06:43:43;13.70;98.50
73572;DHT22;61854;48.510;-2.770;2022-11-14T06:46:11;13.70;98.60
73572;DHT22;61854;48.510;-2.770;2022-11-14T06:48:37;13.70;98.70
73572;DHT22;61854;48.510;-2.770;2022-11-14T06:51:04;13.70;98.70
73572;DHT22;61854;48.510;-2.770;2022-11-14T06:53:31;13.60;98.70
73572;DHT22;61854;48.510;-2.770;2022-11-14T06:56:00;13.60;98.70
73572;DHT22;61854;48.510;-2.770;2022-11-14T06:58:29;13.60;98.80
73572;DHT22;61854;48.510;-2.770;2022-11-14T07:00:55;13.60;98.80
73572;DHT22;61854;48.510;-2.770;2022-11-14T07:03:21;13.60;98.90
73572;DHT22;61854;48.510;-2.770;2022-11-14T07:05:47;13.60;99.00
73572;DHT22;61854;48.510;-2.770;2022-11-14T07:08:14;13.60;99.00
73572;DHT22;61854;48.510;-2.770;2022-11-14T07:10:39;13.60;99.00
73572;DHT22;61854;48.510;-2.770;2022-11-14T07:13:05;13.60;99.00
73572;DHT22;61854;48.510;-2.770;2022-11-14T07:15:31;13.60;99.00
73572;DHT22;61854;48.510;-2.770;2022-11-14T07:17:58;13.60;99.00
73572;DHT22;61854;48.510;-2.770;2022-11-14T07:20:23;13.60;99.10
73572;DHT22;61854;48.510;-2.770;2022-11-14T07:22:49;13.60;99.10
73572;DHT22;61854;48.510;-2.770;2022-11-14T07:25:15;13.60;99.10
73572;DHT22;61854;48.510;-2.770;2022-11-14T07:27:40;13.60;99.10
73572;DHT22;61854;48.510;-2.770;2022-11-14T07:30:06;13.60;99.10
73572;DHT22;61854;48.510;-2.770;2022-11-14T07:32:32;13.60;99.20
73572;DHT22;61854;48.510;-2.770;2022-11-14T07:34:58;13.60;99.10
73572;DHT22;61854;48.510;-2.770;2022-11-14T07:37:23;13.60;99.20
73572;DHT22;61854;48.510;-2.770;2022-11-14T07:39:49;13.60;99.20
73572;DHT22;61854;48.510;-2.770;2022-11-14T07:42:14;13.70;99.30
73572;DHT22;61854;48.510;-2.770;2022-11-14T07:44:40;13.70;99.30
73572;DHT22;61854;48.510;-2.770;2022-11-14T07:47:06;13.70;99.40
73572;DHT22;61854;48.510;-2.770;2022-11-14T07:49:31;13.70;99.40
73572;DHT22;61854;48.510;-2.770;2022-11-14T07:51:58;13.70;99.40
73572;DHT22;61854;48.510;-2.770;2022-11-14T07:54:24;13.70;99.40
73572;DHT22;61854;48.510;-2.770;2022-11-14T07:56:50;13.70;99.30
73572;DHT22;61854;48.510;-2.770;2022-11-14T07:59:15;13.60;99.30
73572;DHT22;61854;48.510;-2.770;2022-11-14T08:01:41;13.60;99.30
73572;DHT22;61854;48.510;-2.770;2022-11-14T08:04:07;13.60;99.30
73572;DHT22;61854;48.510;-2.770;2022-11-14T08:06:32;13.60;99.30
73572;DHT22;61854;48.510;-2.770;2022-11-14T08:08:58;13.60;99.30
73572;DHT22;61854;48.510;-2.770;2022-11-14T08:11:23;13.60;99.40
73572;DHT22;61854;48.510;-2.770;2022-11-14T08:14:08;13.60;99.40
73572;DHT22;61854;48.510;-2.770;2022-11-14T08:16:33;13.60;99.40
73572;DHT22;61854;48.510;-2.770;2022-11-14T08:19:00;13.60;99.40
73572;DHT22;61854;48.510;-2.770;2022-11-14T08:21:25;13.60;99.30
73572;DHT22;61854;48.510;-2.770;2022-11-14T08:23:51;13.60;99.40
73572;DHT22;61854;48.510;-2.770;2022-11-14T08:26:16;13.60;99.40
73572;DHT22;61854;48.510;-2.770;2022-11-14T08:28:42;13.70;99.90
73572;DHT22;61854;48.510;-2.770;2022-11-14T08:31:08;13.70;99.90
73572;DHT22;61854;48.510;-2.770;2022-11-14T08:33:34;13.70;99.60
73572;DHT22;61854;48.510;-2.770;2022-11-14T08:36:04;13.80;99.60
73572;DHT22;61854;48.510;-2.770;2022-11-14T08:38:30;13.80;99.60
73572;DHT22;61854;48.510;-2.770;2022-11-14T08:40:57;13.80;99.60
73572;DHT22;61854;48.510;-2.770;2022-11-14T08:43:23;13.80;99.50
73572;DHT22;61854;48.510;-2.770;2022-11-14T08:45:49;13.90;99.60
73572;DHT22;61854;48.510;-2.770;2022-11-14T08:48:14;13.90;99.50
73572;DHT22;61854;48.510;-2.770;2022-11-14T08:50:40;13.90;99.50
73572;DHT22;61854;48.510;-2.770;2022-11-14T08:53:06;13.90;99.50
73572;DHT22;61854;48.510;-2.770;2022-11-14T08:55:31;13.90;99.50
73572;DHT22;61854;48.510;-2.770;2022-11-14T08:57:57;13.90;99.50
73572;DHT22;61854;48.510;-2.770;2022-11-14T09:00:23;13.90;99.40
73572;DHT22;61854;48.510;-2.770;2022-11-14T09:02:49;13.90;99.40
73572;DHT22;61854;48.510;-2.770;2022-11-14T09:05:15;13.90;99.20
73572;DHT22;61854;48.510;-2.770;2022-11-14T09:07:40;13.80;98.90
73572;DHT22;61854;48.510;-2.770;2022-11-14T09:10:06;13.70;97.60
73572;DHT22;61854;48.510;-2.770;2022-11-14T09:12:32;13.50;97.20
73572;DHT22;61854;48.510;-2.770;2022-11-14T09:14:58;13.20;97.50
73572;DHT22;61854;48.510;-2.770;2022-11-14T09:17:24;13.10;97.70
73572;DHT22;61854;48.510;-2.770;2022-11-14T09:19:50;13.00;98.00
73572;DHT22;61854;48.510;-2.770;2022-11-14T09:22:15;13.00;98.10
73572;DHT22;61854;48.510;-2.770;2022-11-14T09:24:41;12.90;98.30
73572;DHT22;61854;48.510;-2.770;2022-11-14T09:27:07;12.90;98.50
73572;DHT22;61854;48.510;-2.770;2022-11-14T09:29:33;12.90;98.60
73572;DHT22;61854;48.510;-2.770;2022-11-14T09:31:58;12.90;98.70
73572;DHT22;61854;48.510;-2.770;2022-11-14T09:34:24;12.90;98.80
73572;DHT22;61854;48.510;-2.770;2022-11-14T09:36:50;12.90;98.80
73572;DHT22;61854;48.510;-2.770;2022-11-14T09:39:15;12.90;98.90
73572;DHT22;61854;48.510;-2.770;2022-11-14T09:44:43;12.80;98.50
73572;DHT22;61854;48.510;-2.770;2022-11-14T09:47:17;12.70;98.10
73572;DHT22;61854;48.510;-2.770;2022-11-14T09:49:46;12.70;98.00
73572;DHT22;61854;48.510;-2.770;2022-11-14T09:55:02;12.70;98.40
73572;DHT22;61854;48.510;-2.770;2022-11-14T09:57:29;12.60;98.20
73572;DHT22;61854;48.510;-2.770;2022-11-14T09:59:55;12.60;98.30
73572;DHT22;61854;48.510;-2.770;2022-11-14T10:11:18;12.60;98.10
73572;DHT22;61854;48.510;-2.770;2022-11-14T10:19:27;12.70;98.50
73572;DHT22;61854;48.510;-2.770;2022-11-14T10:22:10;12.70;97.80
73572;DHT22;61854;48.510;-2.770;2022-11-14T10:25:28;12.70;97.90
73572;DHT22;61854;48.510;-2.770;2022-11-14T10:33:41;12.70;98.00
73572;DHT22;61854;48.510;-2.770;2022-11-14T10:36:28;12.80;98.10
73572;DHT22;61854;48.510;-2.770;2022-11-14T10:41:42;12.70;97.30
73572;DHT22;61854;48.510;-2.770;2022-11-14T10:44:13;12.80;97.60
73572;DHT22;61854;48.510;-2.770;2022-11-14T10:46:53;12.80;97.50
73572;DHT22;61854;48.510;-2.770;2022-11-14T10:49:22;12.90;97.70
73572;DHT22;61854;48.510;-2.770;2022-11-14T10:51:56;12.90;97.10
73572;DHT22;61854;48.510;-2.770;2022-11-14T10:54:43;12.80;96.70
73572;DHT22;61854;48.510;-2.770;2022-11-14T10:57:18;12.90;96.70
73572;DHT22;61854;48.510;-2.770;2022-11-14T10:59:44;12.90;96.70
73572;DHT22;61854;48.510;-2.770;2022-11-14T11:02:10;12.80;96.60
73572;DHT22;61854;48.510;-2.770;2022-11-14T11:04:40;12.90;96.00
73572;DHT22;61854;48.510;-2.770;2022-11-14T11:09:33;12.90;95.90
73572;DHT22;61854;48.510;-2.770;2022-11-14T11:15:14;13.00;95.90
73572;DHT22;61854;48.510;-2.770;2022-11-14T11:17:57;13.00;94.70
73572;DHT22;61854;48.510;-2.770;2022-11-14T11:20:36;13.00;94.40
73572;DHT22;61854;48.510;-2.770;2022-11-14T11:25:38;13.00;94.00
73572;DHT22;61854;48.510;-2.770;2022-11-14T11:28:15;13.00;94.30
73572;DHT22;61854;48.510;-2.770;2022-11-14T11:31:04;13.00;94.00
73572;DHT22;61854;48.510;-2.770;2022-11-14T11:33:35;13.00;93.00
73572;DHT22;61854;48.510;-2.770;2022-11-14T11:36:11;13.00;92.80
73572;DHT22;61854;48.510;-2.770;2022-11-14T11:38:37;13.00;93.00
73572;DHT22;61854;48.510;-2.770;2022-11-14T11:41:32;13.10;93.10
73572;DHT22;61854;48.510;-2.770;2022-11-14T11:44:03;13.20;92.80
73572;DHT22;61854;48.510;-2.770;2022-11-14T11:46:47;13.30;93.60
73572;DHT22;61854;48.510;-2.770;2022-11-14T11:49:30;13.40;92.70
73572;DHT22;61854;48.510;-2.770;2022-11-14T11:57:47;13.60;92.60
73572;DHT22;61854;48.510;-2.770;2022-11-14T12:00:15;13.70;91.10
73572;DHT22;61854;48.510;-2.770;2022-11-14T12:02:41;13.70;91.60
73572;DHT22;61854;48.510;-2.770;2022-11-14T12:05:57;13.70;91.20
73572;DHT22;61854;48.510;-2.770;2022-11-14T12:08:10;13.70;90.90
73572;DHT22;61854;48.510;-2.770;2022-11-14T12:10:39;13.70;91.20
73572;DHT22;61854;48.510;-2.770;2022-11-14T12:18:27;13.80;90.30
73572;DHT22;61854;48.510;-2.770;2022-11-14T12:21:11;13.80;90.20
73572;DHT22;61854;48.510;-2.770;2022-11-14T12:24:12;13.70;89.30
73572;DHT22;61854;48.510;-2.770;2022-11-14T12:29:57;13.40;88.50
73572;DHT22;61854;48.510;-2.770;2022-11-14T12:35:17;13.20;89.10
73572;DHT22;61854;48.510;-2.770;2022-11-14T12:37:45;13.20;88.50
73572;DHT22;61854;48.510;-2.770;2022-11-14T12:40:22;13.20;90.30
73572;DHT22;61854;48.510;-2.770;2022-11-14T12:42:50;13.30;87.80
73572;DHT22;61854;48.510;-2.770;2022-11-14T12:48:29;13.40;87.60
73572;DHT22;61854;48.510;-2.770;2022-11-14T12:50:59;13.40;88.30
73572;DHT22;61854;48.510;-2.770;2022-11-14T13:01:07;13.70;81.80
73572;DHT22;61854;48.510;-2.770;2022-11-14T13:11:45;13.30;82.10
73572;DHT22;61854;48.510;-2.770;2022-11-14T13:14:32;13.40;82.60
73572;DHT22;61854;48.510;-2.770;2022-11-14T13:17:30;13.60;82.30
73572;DHT22;61854;48.510;-2.770;2022-11-14T13:33:46;13.80;78.50
73572;DHT22;61854;48.510;-2.770;2022-11-14T13:36:44;14.10;79.20
73572;DHT22;61854;48.510;-2.770;2022-11-14T13:42:15;15.50;71.50
73572;DHT22;61854;48.510;-2.770;2022-11-14T13:45:10;15.20;73.20
73572;DHT22;61854;48.510;-2.770;2022-11-14T13:50:27;14.90;74.60
73572;DHT22;61854;48.510;-2.770;2022-11-14T13:52:54;15.90;72.40
73572;DHT22;61854;48.510;-2.770;2022-11-14T13:55:26;16.80;68.80
73572;DHT22;61854;48.510;-2.770;2022-11-14T14:00:38;17.80;64.00
73572;DHT22;61854;48.510;-2.770;2022-11-14T14:08:20;16.70;64.10
73572;DHT22;61854;48.510;-2.770;2022-11-14T14:25:00;18.30;58.00
73572;DHT22;61854;48.510;-2.770;2022-11-14T14:30:17;18.70;58.00
73572;DHT22;61854;48.510;-2.770;2022-11-14T14:33:00;19.00;55.70
73572;DHT22;61854;48.510;-2.770;2022-11-14T14:35:30;18.60;56.20
73572;DHT22;61854;48.510;-2.770;2022-11-14T14:37:57;18.90;57.60
73572;DHT22;61854;48.510;-2.770;2022-11-14T14:42:54;17.60;55.50
73572;DHT22;61854;48.510;-2.770;2022-11-14T14:45:23;16.90;58.90
73572;DHT22;61854;48.510;-2.770;2022-11-14T14:47:57;16.70;60.70
73572;DHT22;61854;48.510;-2.770;2022-11-14T14:50:39;17.30;60.90
73572;DHT22;61854;48.510;-2.770;2022-11-14T14:53:06;17.90;57.00
73572;DHT22;61854;48.510;-2.770;2022-11-14T14:55:34;18.20;55.10
73572;DHT22;61854;48.510;-2.770;2022-11-14T15:00:56;19.00;52.80
73572;DHT22;61854;48.510;-2.770;2022-11-14T15:03:24;19.20;53.30
73572;DHT22;61854;48.510;-2.770;2022-11-14T15:05:57;19.30;53.40
73572;DHT22;61854;48.510;-2.770;2022-11-14T15:08:23;19.10;52.00
73572;DHT22;61854;48.510;-2.770;2022-11-14T15:10:50;18.80;51.00
73572;DHT22;61854;48.510;-2.770;2022-11-14T15:13:18;18.90;50.70
73572;DHT22;61854;48.510;-2.770;2022-11-14T15:15:44;19.10;50.60
73572;DHT22;61854;48.510;-2.770;2022-11-14T15:18:18;19.10;51.20
73572;DHT22;61854;48.510;-2.770;2022-11-14T15:26:43;18.80;51.20
73572;DHT22;61854;48.510;-2.770;2022-11-14T15:32:02;19.00;51.30
73572;DHT22;61854;48.510;-2.770;2022-11-14T15:34:32;18.90;51.30
73572;DHT22;61854;48.510;-2.770;2022-11-14T15:39:33;18.30;53.00
73572;DHT22;61854;48.510;-2.770;2022-11-14T15:44:39;17.10;56.80
73572;DHT22;61854;48.510;-2.770;2022-11-14T15:47:55;16.30;59.30
73572;DHT22;61854;48.510;-2.770;2022-11-14T15:50:04;15.60;62.00
73572;DHT22;61854;48.510;-2.770;2022-11-14T15:52:47;15.00;64.70
73572;DHT22;61854;48.510;-2.770;2022-11-14T15:55:17;14.50;66.70
73572;DHT22;61854;48.510;-2.770;2022-11-14T15:57:43;14.10;68.70
73572;DHT22;61854;48.510;-2.770;2022-11-14T16:00:16;13.90;69.60
73572;DHT22;61854;48.510;-2.770;2022-11-14T16:03:00;13.80;70.40
73572;DHT22;61854;48.510;-2.770;2022-11-14T16:05:28;13.60;70.60
73572;DHT22;61854;48.510;-2.770;2022-11-14T16:07:54;13.50;70.00
73572;DHT22;61854;48.510;-2.770;2022-11-14T16:10:25;13.40;70.50
73572;DHT22;61854;48.510;-2.770;2022-11-14T16:12:51;13.30;71.00
73572;DHT22;61854;48.510;-2.770;2022-11-14T16:15:17;13.20;71.60
73572;DHT22;61854;48.510;-2.770;2022-11-14T16:17:45;13.00;71.60
73572;DHT22;61854;48.510;-2.770;2022-11-14T16:20:23;12.90;71.80
73572;DHT22;61854;48.510;-2.770;2022-11-14T16:22:49;12.80;72.20
73572;DHT22;61854;48.510;-2.770;2022-11-14T16:27:47;12.60;73.00
73572;DHT22;61854;48.510;-2.770;2022-11-14T16:30:15;12.50;73.30
73572;DHT22;61854;48.510;-2.770;2022-11-14T16:32:42;12.40;73.60
73572;DHT22;61854;48.510;-2.770;2022-11-14T16:35:17;12.30;73.90
73572;DHT22;61854;48.510;-2.770;2022-11-14T16:37:43;12.30;74.20
73572;DHT22;61854;48.510;-2.770;2022-11-14T16:42:44;12.10;74.60
73572;DHT22;61854;48.510;-2.770;2022-11-14T16:45:10;12.10;75.20
73572;DHT22;61854;48.510;-2.770;2022-11-14T16:47:36;12.00;75.30
73572;DHT22;61854;48.510;-2.770;2022-11-14T16:50:02;11.90;75.60
73572;DHT22;61854;48.510;-2.770;2022-11-14T16:52:28;11.90;75.40
73572;DHT22;61854;48.510;-2.770;2022-11-14T16:54:54;11.90;75.80
73572;DHT22;61854;48.510;-2.770;2022-11-14T16:57:19;11.80;75.60
73572;DHT22;61854;48.510;-2.770;2022-11-14T16:59:45;11.80;75.50
73572;DHT22;61854;48.510;-2.770;2022-11-14T17:02:14;11.70;75.00
73572;DHT22;61854;48.510;-2.770;2022-11-14T17:04:43;11.70;74.90
73572;DHT22;61854;48.510;-2.770;2022-11-14T17:07:13;11.70;75.40
73572;DHT22;61854;48.510;-2.770;2022-11-14T17:09:39;11.60;74.80
73572;DHT22;61854;48.510;-2.770;2022-11-14T17:12:05;11.60;74.60
73572;DHT22;61854;48.510;-2.770;2022-11-14T17:14:30;11.50;74.90
73572;DHT22;61854;48.510;-2.770;2022-11-14T17:16:56;11.50;75.00
73572;DHT22;61854;48.510;-2.770;2022-11-14T17:19:22;11.50;75.30
73572;DHT22;61854;48.510;-2.770;2022-11-14T17:21:48;11.50;75.30
73572;DHT22;61854;48.510;-2.770;2022-11-14T17:24:13;11.40;75.10
73572;DHT22;61854;48.510;-2.770;2022-11-14T17:26:39;11.40;74.80
73572;DHT22;61854;48.510;-2.770;2022-11-14T17:29:05;11.40;75.10
73572;DHT22;61854;48.510;-2.770;2022-11-14T17:31:32;11.30;75.40
73572;DHT22;61854;48.510;-2.770;2022-11-14T17:33:58;11.30;75.50
73572;DHT22;61854;48.510;-2.770;2022-11-14T17:36:26;11.30;75.60
73572;DHT22;61854;48.510;-2.770;2022-11-14T17:38:56;11.30;75.90
73572;DHT22;61854;48.510;-2.770;2022-11-14T17:41:22;11.20;75.90
73572;DHT22;61854;48.510;-2.770;2022-11-14T17:43:51;11.20;77.80
73572;DHT22;61854;48.510;-2.770;2022-11-14T17:46:18;11.10;77.20
73572;DHT22;61854;48.510;-2.770;2022-11-14T17:48:44;11.10;77.40